Century Venus — 3FXD2 — position and weather

sailwx.info

Track history (hours):
 
Tides and Currents Weather Stations Pressure Air Temp Water Temp Dewpoint Dewpoint Depression Visibility Wind Speed Wind Dir Waves Ship Positions

Century Venus

Last reported at 2017-Aug-10 04:55 UTC. Time now 2017-Aug-21 06:27 UTC.
Position N 36°47' W 075°42'.
Warning: this ship's position is 11 days out of date.

Length 137 m; draft 5.8 m.

Type: Ship. MMSI: 357069000.

Date/timePositionNaut miles runAvg speedWind from/ knotsBaromVisibWave heightAir tempDewpointWater temp
2017-Aug-10 04:55N 36°47' W 075°42'511.5
2017-Aug-10 04:30N 36°49' W 075°47'511.0
2017-Aug-10 04:00N 36°52' W 075°53'510.9
2017-Aug-10 03:30N 36°56' W 075°58'4 8.8
2017-Aug-10 03:00N 36°57' W 076°03'510.1
2017-Aug-10 02:30N 36°59' W 076°09'8 9.5
2017-Aug-10 01:40N 36°59' W 076°19'210.1
2017-Aug-10 01:30N 36°58' W 076°20'5 9.3
2017-Aug-10 00:59N 36°58' W 076°26'0 0.0
2017-Aug-07 23:03N 36°58' W 076°26'0 0.5
2017-Aug-07 23:00N 36°58' W 076°26'0 0.0
2017-Aug-07 22:30N 36°58' W 076°26'0 0.1
2017-Aug-07 22:00N 36°58' W 076°26'0 0.0
2017-Aug-07 16:21N 36°58' W 076°26'0 0.0
2017-Aug-07 16:00N 36°58' W 076°26'0 0.1
2017-Aug-07 15:31N 36°58' W 076°26'0 0.1
2017-Aug-07 15:00N 36°58' W 076°26'0 0.1
2017-Aug-07 14:30N 36°58' W 076°26'3 6.6
2017-Aug-07 13:59N 36°57' W 076°22'611.8
2017-Aug-07 13:30N 37°00' W 076°16'712.6
2017-Aug-07 12:54N 36°58' W 076°07'512.9
2017-Aug-07 12:30N 36°57' W 076°01'611.2
2017-Aug-07 12:00N 36°55' W 075°54'812.7
2017-Aug-07 11:21N 36°50' W 075°46'2012.9
2017-Aug-07 09:46N 36°35' W 075°28'312.9
2017-Aug-07 09:30N 36°33' W 075°25'612.8
2017-Aug-07 09:00N 36°29' W 075°19'1612.4
2017-Aug-07 07:42N 36°14' W 075°11'313.1
2017-Aug-07 07:30N 36°11' W 075°10'  
Track history (hours):
 
Tides and Currents Weather Stations Pressure Air Temp Water Temp Dewpoint Dewpoint Depression Visibility Wind Speed Wind Dir Waves Ship Positions

Century Venus

Last reported at 2017-Aug-10 04:55 UTC. Time now 2017-Aug-21 06:27 UTC.
Position N 36°47' W 075°42'.
Warning: this ship's position is 11 days out of date.

Length 137 m; draft 5.8 m.

Type: Ship. MMSI: 357069000.

Date/timePositionNaut miles runAvg speedWind from/ knotsBaromVisibWave heightAir tempDewpointWater temp
2017-Aug-10 04:55N 36°47' W 075°42'511.5
2017-Aug-10 04:30N 36°49' W 075°47'511.0
2017-Aug-10 04:00N 36°52' W 075°53'510.9
2017-Aug-10 03:30N 36°56' W 075°58'4 8.8
2017-Aug-10 03:00N 36°57' W 076°03'510.1
2017-Aug-10 02:30N 36°59' W 076°09'8 9.5
2017-Aug-10 01:40N 36°59' W 076°19'210.1
2017-Aug-10 01:30N 36°58' W 076°20'5 9.3
2017-Aug-10 00:59N 36°58' W 076°26'0 0.0
2017-Aug-07 23:03N 36°58' W 076°26'0 0.5
2017-Aug-07 23:00N 36°58' W 076°26'0 0.0
2017-Aug-07 22:30N 36°58' W 076°26'0 0.1
2017-Aug-07 22:00N 36°58' W 076°26'0 0.0
2017-Aug-07 16:21N 36°58' W 076°26'0 0.0
2017-Aug-07 16:00N 36°58' W 076°26'0 0.1
2017-Aug-07 15:31N 36°58' W 076°26'0 0.1
2017-Aug-07 15:00N 36°58' W 076°26'0 0.1
2017-Aug-07 14:30N 36°58' W 076°26'3 6.6
2017-Aug-07 13:59N 36°57' W 076°22'611.8
2017-Aug-07 13:30N 37°00' W 076°16'712.6
2017-Aug-07 12:54N 36°58' W 076°07'512.9
2017-Aug-07 12:30N 36°57' W 076°01'611.2
2017-Aug-07 12:00N 36°55' W 075°54'812.7
2017-Aug-07 11:21N 36°50' W 075°46'2012.9
2017-Aug-07 09:46N 36°35' W 075°28'312.9
2017-Aug-07 09:30N 36°33' W 075°25'612.8
2017-Aug-07 09:00N 36°29' W 075°19'1612.4
2017-Aug-07 07:42N 36°14' W 075°11'313.1
2017-Aug-07 07:30N 36°11' W 075°10'  

Dump ship's entire track history